Aérodrome :
LOGIN :

S'inscrire | Disclaimer

   EN    FR    IT 

 










Légende :    VFR   VFR Marginal   IFR   IFR Intensif   IFR Très Intensif
Visi : 
Plafond : 
>= 8 km
>= 3000ft
5 à 8 km
1000 à 3000 ft
1500m à 5 km
500 à 1000 ft
800 à 1500m
200 à 500 ft
< 800m
< 200 ft
Symboles :   Orages  Brouillard  Fortes neiges  Fortes précipitations  Vent > 20 kt
SIGMETs :   Divers  Orages  Givrage  Turbulence  Onde Orograph.  Cendres Volcan.







- Altitude de l'aérodrome : 313 ft
- Code IATA : LEH
- Voir les cartes d'approche


LFOH - Le Havre Octeville

DERNIER METAR :
  • 210800Z AUTO 30006KT 270V330 CAVOK 19/13 Q1022 NOSIG

METARs EXPIRÉS :
  • 210730Z AUTO 32007KT CAVOK 18/13 Q1022 NOSIG
  • 210700Z AUTO 30008KT 280V340 CAVOK 18/13 Q1022 NOSIG
  • 210630Z AUTO 30008KT 9999 FEW014 18/14 Q1022 NOSIG
  • 210600Z AUTO 30007KT 250V330 9999 BKN013 17/14 Q1021 BECMG SCT017
  • 210530Z AUTO 27009KT 9999 BKN010 OVC015 17/15 Q1021

TAF TAF LFOH
Valide du 21 à 06h jusqu'au 22 à 06h UTC


210500Z 2106/2206 26008KT 9999 OVC012
BECMG 2106/2108 SCT017
ATIS : +33 2 35 54 64 93
Pas de NOTAMs connus pour ce terrain.



MET'MAP, la Météo Aéronautique d'un coup d'oeil ! - Copyright ORBIFLY Décembre 2007 - Disclaimer

ORBIFLY MET'MAP TEAM :

Programmation & Développement : Alexandra Zaïnal
Conception & Développement : Baudouin d'Aumeries
Co-Programmation & Développement : Marc-Olivier Méhu
Soutien technique & logistique : Manuel Goepfert

Contact : metmap@orbifly.com




SOURCES & CREDITS :

   NOAA